Time;durP1;ratioP1;P1;durP2;ratioP2;P2;SDS_P1;SDS_P2;PMS_P1;PMS_P2;Temp;Humidity;BMP_temperature;BMP_pressure;BME280_temperature;BME280_humidity;BME280_pressure;Samples;Min_cycle;Max_cycle;Signal;HPM_P1;HPM_P2
2020/12/29 00:00:52;;;;;;;7.07;4.63;;;2.80;99.90;;;;;;5053419;28;20842;-66
2020/12/29 00:03:19;;;;;;;6.20;4.30;;;2.70;99.90;;;;;;5053169;28;20664;-66
2020/12/29 00:05:46;;;;;;;5.30;4.43;;;2.50;99.90;;;;;;5053186;28;20568;-64
2020/12/29 00:08:12;;;;;;;7.10;4.97;;;2.40;99.90;;;;;;5052818;28;20451;-65
2020/12/29 00:10:37;;;;;;;7.47;4.43;;;2.50;99.90;;;;;;5053322;28;20842;-65
2020/12/29 00:13:03;;;;;;;6.00;4.50;;;2.50;99.90;;;;;;5053075;28;20171;-63
2020/12/29 00:15:29;;;;;;;7.67;4.93;;;2.60;99.90;;;;;;5053046;28;20625;-64
2020/12/29 00:17:54;;;;;;;6.20;4.77;;;2.70;99.90;;;;;;5052921;28;20297;-65
2020/12/29 00:20:20;;;;;;;5.90;3.90;;;2.70;99.90;;;;;;5052700;28;20220;-66
2020/12/29 00:22:46;;;;;;;6.40;4.07;;;2.80;99.90;;;;;;5052720;28;20189;-66
2020/12/29 00:25:15;;;;;;;4.77;3.53;;;2.80;99.90;;;;;;5052855;28;20427;-67
2020/12/29 00:27:40;;;;;;;5.53;4.20;;;2.80;99.90;;;;;;5053022;28;20199;-65
2020/12/29 00:30:06;;;;;;;5.30;4.40;;;2.90;99.90;;;;;;5034660;28;20789;-64
2020/12/29 00:32:32;;;;;;;6.03;4.53;;;2.90;99.90;;;;;;5052744;28;20179;-67
2020/12/29 00:34:57;;;;;;;7.20;4.97;;;2.80;99.90;;;;;;5052552;28;20187;-64
2020/12/29 00:37:23;;;;;;;9.93;6.03;;;2.80;99.90;;;;;;5052450;28;20179;-65
2020/12/29 00:39:48;;;;;;;10.90;6.17;;;2.80;99.90;;;;;;5034538;28;20628;-67
2020/12/29 00:42:14;;;;;;;5.93;4.37;;;2.80;99.90;;;;;;5052190;28;20258;-66
2020/12/29 00:44:40;;;;;;;7.73;5.60;;;2.80;99.90;;;;;;5052442;28;20633;-66
2020/12/29 00:47:05;;;;;;;6.43;4.67;;;2.80;99.90;;;;;;5052133;28;20190;-66
2020/12/29 00:49:31;;;;;;;7.47;4.33;;;2.90;99.90;;;;;;5052662;28;20680;-67
2020/12/29 00:51:57;;;;;;;6.87;4.20;;;2.80;99.90;;;;;;5052151;28;20174;-66
2020/12/29 00:54:23;;;;;;;5.27;3.77;;;2.80;99.90;;;;;;5034070;28;20505;-66
2020/12/29 00:56:48;;;;;;;4.30;3.17;;;3.00;99.90;;;;;;5052327;28;20177;-67
2020/12/29 00:59:14;;;;;;;4.27;3.30;;;3.00;99.90;;;;;;5052561;28;20649;-66
2020/12/29 01:01:46;;;;;;;5.07;4.13;;;3.10;99.90;;;;;;5052213;28;20182;-65
2020/12/29 01:04:12;;;;;;;4.97;3.67;;;3.10;99.90;;;;;;5052130;28;20171;-65
2020/12/29 01:06:37;;;;;;;4.37;3.57;;;3.20;99.90;;;;;;5051703;28;20488;-65
2020/12/29 01:09:03;;;;;;;5.50;3.30;;;3.20;99.90;;;;;;5051756;28;20218;-66
2020/12/29 01:11:28;;;;;;;4.00;3.30;;;3.20;99.90;;;;;;5051713;28;20617;-64
2020/12/29 01:13:54;;;;;;;4.90;4.10;;;3.30;99.90;;;;;;5051876;28;20175;-66
2020/12/29 01:16:21;;;;;;;5.33;4.73;;;3.30;99.90;;;;;;5051928;28;20633;-64
2020/12/29 01:18:48;;;;;;;5.60;3.90;;;3.30;99.90;;;;;;5051805;28;20570;-67
2020/12/29 01:21:13;;;;;;;6.93;4.50;;;3.30;99.90;;;;;;5051828;28;20904;-66
2020/12/29 01:23:39;;;;;;;4.57;4.13;;;3.30;99.90;;;;;;5051699;28;20417;-65
2020/12/29 01:26:07;;;;;;;4.57;4.00;;;3.30;99.90;;;;;;5051734;28;20186;-64
2020/12/29 01:28:33;;;;;;;7.00;4.10;;;3.30;99.90;;;;;;5050667;28;20205;-64
2020/12/29 01:30:59;;;;;;;5.73;4.00;;;3.40;99.90;;;;;;5051586;28;20418;-66
2020/12/29 01:33:24;;;;;;;5.27;4.77;;;3.40;99.90;;;;;;5051560;28;20557;-67
2020/12/29 01:35:50;;;;;;;5.00;4.30;;;3.40;99.90;;;;;;5051266;28;20207;-64
2020/12/29 01:38:15;;;;;;;4.77;4.00;;;3.40;99.90;;;;;;5051631;28;20198;-65
2020/12/29 01:40:42;;;;;;;4.70;4.07;;;3.40;99.90;;;;;;5051409;28;20546;-65
2020/12/29 01:43:08;;;;;;;5.37;3.90;;;3.40;99.90;;;;;;5051644;28;20266;-65
2020/12/29 01:45:33;;;;;;;4.10;3.67;;;3.60;99.90;;;;;;5051308;28;20979;-65
2020/12/29 01:47:59;;;;;;;5.93;4.33;;;3.40;99.90;;;;;;5045844;28;20223;-66
2020/12/29 01:50:25;;;;;;;6.93;3.90;;;3.40;99.90;;;;;;5025915;28;20227;-64
2020/12/29 01:53:01;;;;;;;5.10;4.53;;;3.30;99.90;;;;;;5031112;28;20180;-64
2020/12/29 01:55:29;;;;;;;5.93;4.80;;;3.30;99.90;;;;;;5030849;28;20507;-65
2020/12/29 01:57:58;;;;;;;5.60;4.43;;;3.30;99.90;;;;;;5031215;28;20425;-65
2020/12/29 02:00:24;;;;;;;6.33;5.10;;;3.30;99.90;;;;;;5031246;28;20418;-66
2020/12/29 02:02:50;;;;;;;6.57;5.27;;;3.30;99.90;;;;;;5031206;28;20415;-64
2020/12/29 02:05:16;;;;;;;6.20;5.07;;;3.30;99.90;;;;;;5031096;28;20422;-64
2020/12/29 02:07:43;;;;;;;6.40;4.63;;;3.20;99.90;;;;;;5031028;28;20450;-66
2020/12/29 02:10:08;;;;;;;7.67;5.07;;;3.20;99.90;;;;;;5031070;28;20183;-66
2020/12/29 02:12:36;;;;;;;5.40;3.83;;;3.30;99.90;;;;;;5030980;28;20414;-63
2020/12/29 02:15:05;;;;;;;4.77;3.53;;;3.30;99.90;;;;;;5030913;28;20207;-66
2020/12/29 02:17:31;;;;;;;4.97;3.67;;;3.20;99.90;;;;;;5031175;28;20418;-64
2020/12/29 02:19:56;;;;;;;4.83;3.53;;;3.20;99.90;;;;;;5031078;28;20423;-66
2020/12/29 02:22:23;;;;;;;3.40;2.77;;;3.20;99.90;;;;;;5030001;28;20179;-66
2020/12/29 02:24:51;;;;;;;4.20;3.00;;;3.20;99.90;;;;;;5030886;28;20270;-64
2020/12/29 02:27:18;;;;;;;2.27;2.00;;;3.20;99.90;;;;;;5030916;28;20458;-64
2020/12/29 02:29:43;;;;;;;2.40;1.40;;;3.30;99.90;;;;;;5032501;28;20908;-64
2020/12/29 02:32:09;;;;;;;1.43;1.10;;;3.40;99.90;;;;;;5034895;28;20410;-66
2020/12/29 02:34:37;;;;;;;1.70;1.00;;;3.50;99.90;;;;;;5034897;28;20255;-65
2020/12/29 02:37:04;;;;;;;1.27;0.70;;;3.50;99.90;;;;;;5034583;28;20425;-67
2020/12/29 02:39:30;;;;;;;1.53;0.47;;;3.60;99.90;;;;;;5034883;28;20514;-66
2020/12/29 02:41:55;;;;;;;0.43;0.30;;;3.70;99.90;;;;;;5034690;28;20956;-66
2020/12/29 02:44:21;;;;;;;0.23;0.23;;;3.80;99.90;;;;;;5034701;28;20630;-64
2020/12/29 02:46:48;;;;;;;0.40;0.40;;;3.90;99.90;;;;;;5034528;28;20554;-64
2020/12/29 02:49:15;;;;;;;0.50;0.43;;;4.00;99.90;;;;;;5034386;28;20215;-66
2020/12/29 02:51:41;;;;;;;1.00;0.30;;;4.00;99.90;;;;;;5034337;28;20449;-64
2020/12/29 02:54:07;;;;;;;0.30;0.30;;;4.00;99.90;;;;;;5034624;28;20414;-66
2020/12/29 02:56:32;;;;;;;0.30;0.30;;;4.10;99.90;;;;;;5035484;28;20421;-64
2020/12/29 02:58:58;;;;;;;1.23;0.40;;;4.10;99.90;;;;;;5054418;28;20660;-65
2020/12/29 03:01:27;;;;;;;0.20;0.20;;;4.10;99.90;;;;;;5054348;28;20182;-66
2020/12/29 03:03:55;;;;;;;0.30;0.30;;;4.10;99.90;;;;;;5054420;28;20167;-65
2020/12/29 03:06:20;;;;;;;0.60;0.40;;;4.10;99.90;;;;;;5054390;28;20421;-66
2020/12/29 03:08:46;;;;;;;0.37;0.27;;;4.20;99.90;;;;;;5053997;28;20409;-65
2020/12/29 03:11:12;;;;;;;0.87;0.87;;;4.10;99.90;;;;;;5054159;28;20274;-65
2020/12/29 03:13:37;;;;;;;0.20;0.20;;;4.20;99.90;;;;;;5053688;28;20530;-64
2020/12/29 03:16:03;;;;;;;0.50;0.40;;;4.20;99.90;;;;;;5054125;28;20633;-64
2020/12/29 03:18:28;;;;;;;0.37;0.37;;;4.20;99.90;;;;;;5054147;28;20580;-66
2020/12/29 03:20:54;;;;;;;1.90;0.60;;;4.20;99.90;;;;;;5035859;28;20167;-64
2020/12/29 03:23:20;;;;;;;0.30;0.30;;;4.30;99.90;;;;;;5054380;28;20171;-65
2020/12/29 03:25:45;;;;;;;0.20;0.20;;;4.30;99.90;;;;;;5053857;28;20246;-65
2020/12/29 03:28:11;;;;;;;3.23;0.57;;;4.30;99.90;;;;;;5053942;28;20195;-63
2020/12/29 03:30:36;;;;;;;1.03;0.60;;;4.30;99.90;;;;;;5053897;28;20225;-66
2020/12/29 03:33:02;;;;;;;0.40;0.40;;;4.30;99.90;;;;;;5053706;28;20206;-67
2020/12/29 03:35:27;;;;;;;0.50;0.50;;;4.30;99.90;;;;;;5053942;28;20182;-64
2020/12/29 03:37:53;;;;;;;0.37;0.37;;;4.20;99.90;;;;;;5053721;28;20226;-65
2020/12/29 03:40:19;;;;;;;2.00;0.30;;;4.20;99.90;;;;;;5053451;28;20179;-67
2020/12/29 03:42:44;;;;;;;0.93;0.30;;;4.10;99.90;;;;;;5053969;28;20179;-65
2020/12/29 03:45:10;;;;;;;0.30;0.30;;;4.00;99.90;;;;;;5053537;28;20190;-64
2020/12/29 03:47:35;;;;;;;0.27;0.27;;;3.80;99.90;;;;;;5053612;28;20253;-66
2020/12/29 03:50:01;;;;;;;0.40;0.30;;;3.80;99.90;;;;;;5045982;28;20242;-65
2020/12/29 03:52:26;;;;;;;1.10;0.20;;;3.70;99.90;;;;;;5053460;28;20266;-65
2020/12/29 03:54:52;;;;;;;1.37;0.30;;;3.60;99.90;;;;;;5053411;28;20179;-64
2020/12/29 03:57:17;;;;;;;2.43;0.30;;;3.50;99.90;;;;;;5043700;28;20653;-66
2020/12/29 03:59:43;;;;;;;0.77;0.20;;;3.50;99.90;;;;;;5041841;28;20649;-65
2020/12/29 04:02:09;;;;;;;0.10;0.10;;;3.50;99.90;;;;;;5052062;28;20206;-64
2020/12/29 04:04:37;;;;;;;0.10;0.10;;;3.50;99.90;;;;;;5053178;28;20190;-66
2020/12/29 04:07:03;;;;;;;0.17;0.17;;;3.50;99.90;;;;;;5047567;28;20799;-65
2020/12/29 04:09:30;;;;;;;0.30;0.20;;;3.40;99.90;;;;;;5048744;28;20410;-64
2020/12/29 04:11:57;;;;;;;0.17;0.17;;;3.40;99.90;;;;;;5047863;28;20471;-65
2020/12/29 04:14:23;;;;;;;1.80;0.10;;;3.30;99.90;;;;;;5041809;28;20430;-64
2020/12/29 04:16:49;;;;;;;0.40;0.10;;;3.40;99.90;;;;;;5051618;28;20895;-65
2020/12/29 04:19:15;;;;;;;0.10;0.10;;;3.20;99.90;;;;;;5052976;28;20207;-64
2020/12/29 04:21:40;;;;;;;0.10;0.10;;;3.20;99.90;;;;;;5052811;28;20930;-66
2020/12/29 04:24:06;;;;;;;0.77;0.20;;;3.10;99.90;;;;;;5052888;28;20510;-65
2020/12/29 04:26:34;;;;;;;0.10;0.10;;;3.10;99.90;;;;;;5052692;28;20179;-67
2020/12/29 04:29:00;;;;;;;0.10;0.10;;;3.00;99.90;;;;;;5051870;28;20179;-64
2020/12/29 04:31:25;;;;;;;0.10;0.10;;;3.00;99.90;;;;;;5052597;28;20433;-64
2020/12/29 04:33:51;;;;;;;0.20;0.20;;;3.00;99.90;;;;;;5052473;28;21259;-65
2020/12/29 04:36:17;;;;;;;0.10;0.10;;;3.00;99.90;;;;;;5044362;28;20171;-64
2020/12/29 04:38:43;;;;;;;0.10;0.10;;;3.00;99.90;;;;;;5049377;28;20186;-65
2020/12/29 04:41:08;;;;;;;0.10;0.10;;;2.80;99.90;;;;;;5033318;28;20206;-65
2020/12/29 04:43:35;;;;;;;0.13;0.13;;;2.90;99.90;;;;;;5040113;28;20195;-65
2020/12/29 04:46:03;;;;;;;0.10;0.10;;;3.10;99.90;;;;;;5049145;28;20240;-65
2020/12/29 04:48:30;;;;;;;0.17;0.10;;;3.00;99.90;;;;;;5039603;28;20801;-66
2020/12/29 04:51:04;;;;;;;0.20;0.20;;;3.00;99.90;;;;;;5039630;28;20413;-64
2020/12/29 04:53:31;;;;;;;0.20;0.20;;;2.90;99.90;;;;;;5030252;28;20421;-66
2020/12/29 04:56:03;;;;;;;0.10;0.10;;;3.00;99.90;;;;;;5050890;28;20508;-67
2020/12/29 04:58:31;;;;;;;0.23;0.17;;;3.00;99.90;;;;;;5052411;28;20424;-64
2020/12/29 05:00:57;;;;;;;0.20;0.20;;;;;;;;;;5032226;28;20437;-66
2020/12/29 05:03:27;;;;;;;0.20;0.20;;;2.80;99.90;;;;;;5049687;28;20512;-67
2020/12/29 05:05:53;;;;;;;0.10;0.10;;;3.00;99.90;;;;;;5051916;28;20430;-66
2020/12/29 05:08:18;;;;;;;0.20;0.20;;;2.90;99.90;;;;;;5048440;28;20469;-67
2020/12/29 05:10:47;;;;;;;0.40;0.20;;;2.90;99.90;;;;;;5039201;28;20191;-66
2020/12/29 05:13:13;;;;;;;0.50;0.30;;;3.00;99.90;;;;;;5048063;28;20189;-63
2020/12/29 05:15:38;;;;;;;0.20;0.20;;;3.00;99.90;;;;;;5043626;28;20453;-64
2020/12/29 05:18:04;;;;;;;0.30;0.30;;;3.00;99.90;;;;;;5044935;28;20183;-66
2020/12/29 05:20:33;;;;;;;0.20;0.20;;;3.00;99.90;;;;;;5043946;28;20195;-65
2020/12/29 05:23:00;;;;;;;0.20;0.20;;;3.00;99.90;;;;;;5051044;28;20512;-64
2020/12/29 05:25:25;;;;;;;0.20;0.20;;;3.20;99.90;;;;;;5051800;28;20449;-66
2020/12/29 05:27:51;;;;;;;0.20;0.20;;;3.10;99.90;;;;;;5051750;28;20481;-65
2020/12/29 05:30:17;;;;;;;0.30;0.30;;;3.10;99.90;;;;;;5047262;28;20570;-65
2020/12/29 05:32:43;;;;;;;0.30;0.30;;;2.90;99.90;;;;;;5051585;28;20370;-63
2020/12/29 05:35:13;;;;;;;0.50;0.40;;;3.10;99.90;;;;;;5051790;28;20197;-65
2020/12/29 05:37:40;;;;;;;0.50;0.40;;;3.10;99.90;;;;;;5049749;28;20230;-67
2020/12/29 05:40:26;;;;;;;0.30;0.30;;;3.10;99.90;;;;;;5042812;28;20429;-65
2020/12/29 05:42:57;;;;;;;0.47;0.33;;;3.20;99.90;;;;;;5048307;28;20418;-65
2020/12/29 05:45:31;;;;;;;0.40;0.40;;;3.10;99.90;;;;;;5043998;28;20464;-65
2020/12/29 05:48:01;;;;;;;0.30;0.30;;;3.20;99.90;;;;;;5050589;28;20459;-65
2020/12/29 05:50:28;;;;;;;0.50;0.50;;;3.20;99.90;;;;;;5040937;28;20446;-67
2020/12/29 05:52:57;;;;;;;0.50;0.40;;;3.20;99.90;;;;;;5039619;28;20414;-65
2020/12/29 05:55:23;;;;;;;0.43;0.43;;;3.70;99.90;;;;;;5045528;28;20783;-66
2020/12/29 05:58:11;;;;;;;0.40;0.40;;;3.20;99.90;;;;;;5043664;28;20418;-64
2020/12/29 06:00:38;;;;;;;0.50;0.50;;;3.30;99.90;;;;;;5049498;28;20692;-64
2020/12/29 06:03:07;;;;;;;0.30;0.30;;;3.40;99.90;;;;;;5035040;28;20824;-65
2020/12/29 06:05:34;;;;;;;0.53;0.53;;;3.30;99.90;;;;;;5048479;28;20827;-65
2020/12/29 06:08:05;;;;;;;0.83;0.70;;;3.30;99.90;;;;;;5049542;28;20543;-64
2020/12/29 06:10:33;;;;;;;0.40;0.40;;;3.20;99.90;;;;;;5055454;28;20496;-66
2020/12/29 06:13:03;;;;;;;0.50;0.50;;;3.20;99.90;;;;;;5046947;28;20484;-65
2020/12/29 06:15:36;;;;;;;1.03;0.70;;;3.20;99.90;;;;;;5036428;28;20467;-64
2020/12/29 06:18:07;;;;;;;0.43;0.43;;;3.20;99.90;;;;;;5036942;28;20432;-64
2020/12/29 06:20:52;;;;;;;0.80;0.80;;;3.20;99.90;;;;;;5054369;28;20413;-65
2020/12/29 06:23:18;;;;;;;0.60;0.60;;;3.20;99.90;;;;;;5054567;28;20818;-64
2020/12/29 06:25:45;;;;;;;0.60;0.40;;;2.90;99.90;;;;;;5043677;28;20926;-67
2020/12/29 06:28:18;;;;;;;0.50;0.50;;;3.30;99.90;;;;;;5044281;28;20453;-65
2020/12/29 06:30:43;;;;;;;0.57;0.57;;;3.30;99.90;;;;;;5046934;28;20479;-64
2020/12/29 06:33:16;;;;;;;0.40;0.40;;;3.40;99.90;;;;;;5050525;28;20500;-65
2020/12/29 06:35:42;;;;;;;0.53;0.50;;;3.40;99.90;;;;;;5054926;28;20236;-67
2020/12/29 06:38:24;;;;;;;0.70;0.70;;;3.40;99.90;;;;;;5054689;28;20768;-64
2020/12/29 06:40:51;;;;;;;1.80;0.73;;;3.40;99.90;;;;;;5055046;28;20216;-64
2020/12/29 06:43:17;;;;;;;0.70;0.70;;;3.40;99.90;;;;;;5044874;28;20422;-65
2020/12/29 06:45:43;;;;;;;0.87;0.87;;;3.40;99.90;;;;;;5047773;28;20775;-67
2020/12/29 06:48:16;;;;;;;1.10;1.00;;;3.40;99.90;;;;;;5052917;28;20241;-66
2020/12/29 06:50:42;;;;;;;1.07;0.80;;;3.40;99.90;;;;;;5027606;28;20191;-63
2020/12/29 06:53:07;;;;;;;0.53;0.53;;;3.50;99.90;;;;;;5026963;28;20414;-63
2020/12/29 06:55:37;;;;;;;0.83;0.83;;;3.50;99.90;;;;;;5024591;28;20186;-64
2020/12/29 06:58:07;;;;;;;1.30;0.87;;;3.50;99.90;;;;;;5023267;28;20184;-65
2020/12/29 07:00:39;;;;;;;0.80;0.80;;;3.50;99.90;;;;;;5034508;28;20497;-63
2020/12/29 07:03:04;;;;;;;0.63;0.63;;;3.50;99.90;;;;;;5033749;28;20493;-67
2020/12/29 07:05:35;;;;;;;0.97;0.70;;;3.50;99.90;;;;;;5034471;28;20449;-63
2020/12/29 07:08:06;;;;;;;0.70;0.70;;;3.60;99.90;;;;;;5027610;28;20196;-64
2020/12/29 07:10:41;;;;;;;0.70;0.70;;;3.50;99.90;;;;;;5034605;28;20421;-65
2020/12/29 07:13:17;;;;;;;0.70;0.70;;;3.60;99.90;;;;;;5033788;28;20514;-65
2020/12/29 07:15:55;;;;;;;1.10;0.70;;;3.60;99.90;;;;;;5033520;28;20745;-65
2020/12/29 07:18:22;;;;;;;1.10;0.70;;;3.60;99.90;;;;;;5034219;28;20509;-64
2020/12/29 07:20:49;;;;;;;0.50;0.50;;;3.60;99.90;;;;;;5034249;28;20415;-64
2020/12/29 07:23:18;;;;;;;0.60;0.60;;;3.60;99.90;;;;;;5026666;28;20469;-66
2020/12/29 07:25:48;;;;;;;0.70;0.70;;;3.60;99.90;;;;;;5018397;28;20416;-66
2020/12/29 07:28:15;;;;;;;0.70;0.70;;;3.60;99.90;;;;;;5028709;28;20450;-66
2020/12/29 07:30:40;;;;;;;0.83;0.83;;;3.60;99.90;;;;;;5024225;28;20411;-65
2020/12/29 07:33:08;;;;;;;0.60;0.60;;;3.60;99.90;;;;;;5027028;28;20416;-63
2020/12/29 07:35:36;;;;;;;2.03;1.50;;;3.60;99.90;;;;;;5033981;28;20255;-65
2020/12/29 07:38:13;;;;;;;0.77;0.77;;;3.60;99.90;;;;;;5034013;28;20422;-65
2020/12/29 07:40:41;;;;;;;2.60;1.20;;;3.60;99.90;;;;;;5033750;28;20425;-66
2020/12/29 07:43:08;;;;;;;1.80;1.50;;;3.60;99.90;;;;;;5033954;28;20505;-62
2020/12/29 07:45:34;;;;;;;1.60;1.23;;;3.60;99.90;;;;;;5016790;28;20477;-66
2020/12/29 07:48:01;;;;;;;1.70;1.57;;;3.70;99.90;;;;;;5018913;28;20505;-64
2020/12/29 07:50:28;;;;;;;1.07;0.90;;;3.70;99.90;;;;;;5051582;28;20457;-66
2020/12/29 07:53:08;;;;;;;1.33;0.93;;;3.70;99.90;;;;;;5053116;28;20425;-64
2020/12/29 07:55:34;;;;;;;0.83;0.83;;;3.70;99.90;;;;;;5034104;28;20418;-66
2020/12/29 07:58:07;;;;;;;1.40;1.07;;;3.80;99.90;;;;;;5047849;28;20426;-66
2020/12/29 08:00:35;;;;;;;1.03;0.70;;;3.80;99.90;;;;;;5041791;28;20765;-64
2020/12/29 08:03:01;;;;;;;0.50;0.50;;;3.70;99.90;;;;;;5043352;28;20421;-65
2020/12/29 08:05:28;;;;;;;0.80;0.73;;;3.70;99.90;;;;;;5042916;28;20422;-66
2020/12/29 08:07:56;;;;;;;0.73;0.73;;;3.70;99.90;;;;;;5052941;28;20825;-64
2020/12/29 08:10:27;;;;;;;1.30;0.80;;;3.60;99.90;;;;;;5053015;28;20440;-67
2020/12/29 08:12:57;;;;;;;0.60;0.60;;;3.70;99.90;;;;;;5052952;28;20467;-66
2020/12/29 08:15:28;;;;;;;0.70;0.70;;;3.70;99.90;;;;;;5051946;28;20440;-63
2020/12/29 08:18:05;;;;;;;0.63;0.53;;;3.70;99.90;;;;;;5047676;28;20423;-64
2020/12/29 08:20:32;;;;;;;0.80;0.70;;;;;;;;;;5039337;28;20421;-64
2020/12/29 08:23:04;;;;;;;0.63;0.63;;;3.80;99.90;;;;;;5050126;28;20410;-65
2020/12/29 08:25:30;;;;;;;0.97;0.80;;;3.80;99.90;;;;;;5043978;28;20411;-66
2020/12/29 08:28:02;;;;;;;3.70;0.70;;;3.90;99.90;;;;;;5051480;28;20800;-63
2020/12/29 08:30:28;;;;;;;0.57;0.57;;;3.90;99.90;;;;;;5052766;28;20874;-65
2020/12/29 08:32:57;;;;;;;0.70;0.70;;;3.80;99.90;;;;;;5051154;28;20421;-64
2020/12/29 08:35:22;;;;;;;0.50;0.50;;;4.30;99.90;;;;;;5047338;28;20954;-65
2020/12/29 08:38:09;;;;;;;0.80;0.70;;;3.80;99.90;;;;;;5049804;28;20426;-64
2020/12/29 08:40:41;;;;;;;0.53;0.53;;;3.80;99.90;;;;;;5031762;28;20181;-63
2020/12/29 08:43:07;;;;;;;1.40;0.87;;;3.90;99.90;;;;;;5051411;28;20798;-66
2020/12/29 08:45:34;;;;;;;0.60;0.60;;;3.90;99.90;;;;;;5052066;28;20476;-63
2020/12/29 08:48:00;;;;;;;0.47;0.47;;;3.90;99.90;;;;;;5051514;28;20780;-65
2020/12/29 08:50:31;;;;;;;0.50;0.50;;;3.90;99.90;;;;;;5051659;28;20491;-64
2020/12/29 08:53:09;;;;;;;0.50;0.50;;;3.90;99.90;;;;;;5051457;28;20179;-64
2020/12/29 08:55:39;;;;;;;2.60;0.97;;;4.10;99.90;;;;;;5051408;28;20752;-66
2020/12/29 08:58:05;;;;;;;0.73;0.40;;;4.00;99.90;;;;;;5051092;28;20414;-66
2020/12/29 09:00:31;;;;;;;1.90;0.80;;;4.00;99.90;;;;;;5051394;28;20986;-63
2020/12/29 09:02:57;;;;;;;0.50;0.50;;;4.00;99.90;;;;;;5034767;28;20191;-64
2020/12/29 09:05:25;;;;;;;0.70;0.70;;;4.00;99.90;;;;;;5051386;28;20919;-65
2020/12/29 09:07:51;;;;;;;0.73;0.60;;;4.00;99.90;;;;;;5051519;28;20489;-65
2020/12/29 09:10:17;;;;;;;0.70;0.43;;;4.00;99.90;;;;;;5051495;28;20409;-63
2020/12/29 09:12:43;;;;;;;0.77;0.77;;;4.00;99.90;;;;;;5030777;28;20433;-62
2020/12/29 09:15:21;;;;;;;0.80;0.80;;;4.00;99.90;;;;;;5044530;28;20432;-65
2020/12/29 09:17:58;;;;;;;1.03;0.60;;;4.00;99.90;;;;;;5037234;28;20659;-63
2020/12/29 09:20:25;;;;;;;1.03;0.80;;;4.10;99.90;;;;;;5039717;28;20430;-63
2020/12/29 09:23:03;;;;;;;1.23;0.97;;;4.10;99.90;;;;;;5045210;28;20436;-65
2020/12/29 09:25:41;;;;;;;0.90;0.60;;;4.10;99.90;;;;;;5051183;28;20422;-65
2020/12/29 09:28:18;;;;;;;1.23;0.83;;;4.20;99.90;;;;;;5051266;28;20895;-64
2020/12/29 09:31:07;;;;;;;2.20;0.90;;;4.20;99.90;;;;;;5032414;28;20421;-64
2020/12/29 09:33:35;;;;;;;2.30;0.70;;;4.30;99.90;;;;;;5051052;28;20434;-64
2020/12/29 09:36:04;;;;;;;2.00;0.77;;;4.20;99.90;;;;;;5051278;28;20763;-66
2020/12/29 09:38:33;;;;;;;0.60;0.60;;;4.20;99.90;;;;;;5050636;28;20914;-63
2020/12/29 09:41:03;;;;;;;1.03;0.83;;;4.20;99.90;;;;;;5050770;28;20927;-63
2020/12/29 09:43:29;;;;;;;0.50;0.50;;;4.20;99.90;;;;;;5050963;28;20512;-65
2020/12/29 09:45:57;;;;;;;1.57;0.73;;;4.30;99.90;;;;;;5038378;28;20465;-64
2020/12/29 09:48:23;;;;;;;0.67;0.67;;;3.90;99.90;;;;;;5049785;28;20459;-64
2020/12/29 09:51:02;;;;;;;0.40;0.30;;;4.20;99.90;;;;;;5037769;28;20493;-66
2020/12/29 09:53:28;;;;;;;1.63;0.70;;;4.10;99.90;;;;;;5033846;28;20403;-65
2020/12/29 09:55:54;;;;;;;3.37;0.90;;;4.20;99.90;;;;;;5032094;28;20774;-65
2020/12/29 09:58:20;;;;;;;1.67;1.10;;;4.30;99.90;;;;;;5032201;28;20178;-65
2020/12/29 10:00:47;;;;;;;2.00;1.10;;;4.10;99.90;;;;;;5047890;28;20418;-64
2020/12/29 10:03:15;;;;;;;1.07;0.77;;;4.30;99.90;;;;;;5031614;28;20175;-63
2020/12/29 10:05:43;;;;;;;1.03;0.83;;;4.30;99.90;;;;;;5039529;28;20418;-64
2020/12/29 10:08:09;;;;;;;1.93;1.00;;;4.10;99.90;;;;;;5050130;28;20982;-65
2020/12/29 10:10:35;;;;;;;1.80;1.00;;;4.40;99.90;;;;;;5050677;28;20425;-63
2020/12/29 10:13:00;;;;;;;2.03;1.60;;;4.50;99.90;;;;;;5050403;28;20178;-65
2020/12/29 10:15:26;;;;;;;1.40;1.10;;;4.60;99.90;;;;;;5050282;28;20540;-63
2020/12/29 10:17:52;;;;;;;3.03;1.17;;;;;;;;;;5050481;28;20210;-65
2020/12/29 10:20:17;;;;;;;2.17;0.87;;;4.50;99.90;;;;;;5050557;28;20668;-63
2020/12/29 10:22:43;;;;;;;1.20;1.10;;;4.50;99.90;;;;;;5049316;28;20187;-64
2020/12/29 10:25:14;;;;;;;2.13;0.70;;;4.50;99.90;;;;;;5045525;28;20648;-63
2020/12/29 10:27:41;;;;;;;1.80;0.80;;;4.20;99.90;;;;;;5049696;28;20202;-64
2020/12/29 10:30:06;;;;;;;0.70;0.70;;;4.50;99.90;;;;;;5050823;28;20413;-63
2020/12/29 10:32:32;;;;;;;1.20;1.10;;;4.50;99.90;;;;;;5050465;28;20823;-66
2020/12/29 10:34:57;;;;;;;2.53;1.17;;;4.60;99.90;;;;;;5032578;28;20175;-63
2020/12/29 10:37:23;;;;;;;2.43;1.57;;;4.50;99.90;;;;;;5050556;28;20190;-64
2020/12/29 10:39:48;;;;;;;0.97;0.90;;;4.60;99.90;;;;;;5050391;28;20206;-63
2020/12/29 10:42:14;;;;;;;2.03;1.00;;;4.50;99.90;;;;;;5050475;28;20180;-62
2020/12/29 10:44:40;;;;;;;2.13;1.17;;;4.60;99.90;;;;;;5050295;28;20606;-65
2020/12/29 10:47:06;;;;;;;1.67;0.80;;;;;;;;;;5050224;28;20211;-63
2020/12/29 10:49:39;;;;;;;3.90;1.43;;;4.70;99.90;;;;;;5034443;28;20451;-66
2020/12/29 10:52:04;;;;;;;2.13;0.80;;;4.60;99.90;;;;;;5030563;28;20576;-65
2020/12/29 10:54:30;;;;;;;2.50;1.13;;;;;;;;;;5036523;28;20909;-65
2020/12/29 10:56:56;;;;;;;1.80;1.17;;;4.80;99.90;;;;;;5054086;28;20584;-67
2020/12/29 10:59:21;;;;;;;2.50;1.37;;;5.30;99.90;;;;;;5053947;28;20175;-64
2020/12/29 11:01:47;;;;;;;2.00;1.00;;;5.00;99.90;;;;;;5053629;28;20182;-64
2020/12/29 11:04:12;;;;;;;3.60;1.20;;;5.30;99.90;;;;;;5034531;28;20341;-65
2020/12/29 11:06:38;;;;;;;3.87;1.30;;;5.30;99.90;;;;;;5053911;28;21012;-64
2020/12/29 11:09:04;;;;;;;4.63;1.30;;;5.20;99.90;;;;;;5052473;28;20213;-64
2020/12/29 11:11:29;;;;;;;2.00;1.10;;;5.20;99.90;;;;;;5053635;28;20660;-63
2020/12/29 11:13:55;;;;;;;4.10;1.67;;;5.20;99.90;;;;;;5053585;28;20171;-65
2020/12/29 11:16:21;;;;;;;3.70;1.43;;;5.20;99.90;;;;;;5053284;28;20179;-64
2020/12/29 11:18:48;;;;;;;5.50;1.33;;;5.30;99.90;;;;;;5053349;28;20175;-64
2020/12/29 11:21:15;;;;;;;4.80;1.77;;;5.20;99.90;;;;;;5053107;28;20433;-64
2020/12/29 11:23:41;;;;;;;3.97;1.73;;;5.20;99.90;;;;;;5053129;28;20421;-64
2020/12/29 11:26:07;;;;;;;3.03;1.50;;;5.20;99.90;;;;;;5053205;28;20822;-65
2020/12/29 11:28:32;;;;;;;3.47;1.47;;;5.20;99.90;;;;;;5050184;28;20198;-63
2020/12/29 11:30:58;;;;;;;2.60;1.30;;;5.30;99.90;;;;;;5051680;28;20175;-63
2020/12/29 11:33:24;;;;;;;7.00;2.40;;;5.30;99.90;;;;;;5043082;28;20182;-64
2020/12/29 11:35:50;;;;;;;3.73;2.10;;;5.40;99.90;;;;;;5041730;28;20175;-65
2020/12/29 11:38:16;;;;;;;4.20;1.77;;;5.40;99.90;;;;;;5037655;28;20172;-65
2020/12/29 11:40:50;;;;;;;3.10;1.20;;;5.50;99.90;;;;;;5044247;28;20191;-65
2020/12/29 11:43:16;;;;;;;5.63;1.90;;;5.60;99.90;;;;;;5041158;28;20410;-64
2020/12/29 11:45:44;;;;;;;4.13;1.80;;;5.60;99.90;;;;;;5046482;28;20445;-67
2020/12/29 11:48:10;;;;;;;2.00;1.30;;;5.80;99.90;;;;;;5051739;28;20628;-65
2020/12/29 11:50:36;;;;;;;6.37;1.37;;;5.90;99.90;;;;;;5048717;28;20489;-63
2020/12/29 11:53:02;;;;;;;3.97;1.40;;;6.10;99.90;;;;;;5049412;28;20175;-62
2020/12/29 11:55:27;;;;;;;4.43;1.80;;;6.00;99.90;;;;;;5049657;28;20199;-63
2020/12/29 11:57:53;;;;;;;2.47;1.30;;;6.10;99.90;;;;;;5052477;28;20280;-65
2020/12/29 12:00:18;;;;;;;4.43;1.70;;;6.40;99.90;;;;;;5052845;28;20202;-62
2020/12/29 12:02:44;;;;;;;3.73;1.57;;;6.80;99.90;;;;;;5051512;28;20637;-66
2020/12/29 12:05:11;;;;;;;1.90;1.20;;;6.80;99.90;;;;;;5052432;28;20168;-64
2020/12/29 12:07:37;;;;;;;3.83;1.30;;;6.60;99.90;;;;;;5052021;28;20198;-64
2020/12/29 12:10:04;;;;;;;3.17;1.17;;;6.60;99.90;;;;;;5050828;28;20548;-65
2020/12/29 12:12:29;;;;;;;2.33;1.40;;;6.40;99.90;;;;;;5052279;28;20171;-65
2020/12/29 12:14:55;;;;;;;3.27;1.30;;;;;;;;;;5051853;28;20409;-66
2020/12/29 12:17:21;;;;;;;5.73;2.23;;;6.20;99.90;;;;;;5052363;28;20215;-63
2020/12/29 12:19:46;;;;;;;0.70;0.70;;;6.20;99.90;;;;;;5052309;28;20205;-66
2020/12/29 12:22:12;;;;;;;3.00;1.00;;;6.10;99.90;;;;;;5051419;28;20207;-67
2020/12/29 12:24:37;;;;;;;5.00;1.20;;;6.10;99.90;;;;;;5050682;28;20171;-65
2020/12/29 12:27:04;;;;;;;3.80;1.37;;;6.10;99.90;;;;;;5045550;28;20194;-66
2020/12/29 12:29:29;;;;;;;7.67;1.20;;;6.00;99.90;;;;;;5052010;28;20633;-67
2020/12/29 12:31:55;;;;;;;2.23;0.80;;;6.00;99.90;;;;;;5044864;28;20958;-67
2020/12/29 12:34:20;;;;;;;6.27;1.17;;;6.00;99.90;;;;;;5039842;28;20179;-65
2020/12/29 12:36:46;;;;;;;5.40;1.47;;;5.90;99.90;;;;;;5033917;28;20539;-65
2020/12/29 12:39:12;;;;;;;3.93;1.50;;;5.90;99.90;;;;;;5034319;28;20179;-66
2020/12/29 12:41:37;;;;;;;8.77;1.43;;;5.90;99.90;;;;;;5042835;28;20718;-66
2020/12/29 12:44:03;;;;;;;4.30;1.40;;;6.00;99.90;;;;;;5048378;28;20182;-66
2020/12/29 12:46:29;;;;;;;4.77;1.00;;;6.40;99.90;;;;;;5051494;28;20175;-66
2020/12/29 12:48:54;;;;;;;3.40;1.37;;;;;;;;;;5042987;28;20287;-66
2020/12/29 12:51:20;;;;;;;2.83;1.60;;;;;;;;;;5044029;28;20574;-65
2020/12/29 12:53:46;;;;;;;3.63;1.37;;;6.50;99.90;;;;;;5041375;28;20193;-66
2020/12/29 12:56:16;;;;;;;3.53;1.17;;;6.60;99.90;;;;;;5042468;28;20186;-65
2020/12/29 12:58:42;;;;;;;2.77;1.07;;;6.50;99.90;;;;;;5035179;28;20187;-64
2020/12/29 13:01:08;;;;;;;3.47;1.30;;;6.30;99.90;;;;;;5039164;28;20421;-64